Tillamook, OR

2:28 PM PDT on September 02, 2014 (GMT -0700)
Tillamook | Change Station
CLOSE
Current Station
Airport
Location: Tillamook,
Elevation: 36 ft
Nearby Weather Stations

Elev 36 ft 45.42 °N, 123.81 °W | Updated 13 minutes ago

Overcast
Overcast
72 °F
Feels Like 72 °F
N
14
Wind Variable Wind from NW

Today
High -- | Low -- °F
--% Chance of Precip.
Yesterday
High -- | Low -- °F
Precip. -- in
6:37 AM 7:50 PM
First Quarter, 55% visible
Pressure 29.99 in
Visibility 10.0 miles
Clouds Overcast 4700 ft
Dew Point 50 °F
Humidity 46%
Rainfall 0.00 in
Snow Depth 4 in
UV 2 out of 12
Pollen 2.90 out of 12
Air Quality Not available.
Flu Activity Not available.
METAR KTMK 022115Z AUTO 31012KT 10SM OVC047 22/10 A2999 RMK AO2

More Conditions Fewer Conditions

Pressure 29.99 in
Visibility 10.0 miles
Clouds Overcast 4700 ft
Dew Point 50 °F
Humidity 46%
Rainfall 0.00 in
Snow Depth 4 in
UV 2 out of 12
Pollen 2.90 out of 12
Air Quality Not available.
Flu Activity Not available.
METAR KTMK 022115Z AUTO 31012KT 10SM OVC047 22/10 A2999 RMK AO2

More Conditions Fewer Conditions

10-Day Weather Forecast

Almanac

Astronomy

Sep. 02, 2014 Rise Set
Actual Time 6:37 AM PDT 7:50 PM PDT
Civil Twilight 6:07 AM PDT 8:20 PM PDT
Nautical Twilight 5:30 AM PDT 8:57 PM PDT
Astronomical Twilight 4:51 AM PDT 9:36 PM PDT
Moon 2:48 PM PDT No Moon Set
Length of Visible Light 14h 13m
Length of Day
13h 12m
Tomorrow will be 3m 5s shorter.
First Quarter, 55% of the Moon is Illuminated
Today
First Quarter
Sep 8
Full
Sep 15
Last Quarter
Sep 24
New
Oct 1
First Quarter

Today's Extremes

State Highs State Lows

Community

WunderPhotos

Upload Photos

1,749,769 photos uploaded!

Nearby

Snow Depth

Station Depth Elevation
Saddle Mountain 4 in 3250 ft
North Fork 0 in 3120 ft
Blazed Alder 0 in 3650 ft
Mud Ridge 0 in 3800 ft
Red Hill 0 in 4400 ft

Earthquake Activity

City Distance Mag. Time & Date
No recent earthquake activity has been reported nearby.
Minimum magnitude displayed is 2.5.

Coastal Water Temperatures

Place Temperature
Astoria, OR 70.0 °F
Westport, WA 61.0 °F

Nearby Weather Stations